Time;durP1;ratioP1;P1;durP2;ratioP2;P2;SDS_P1;SDS_P2;PMS_P1;PMS_P2;Temp;Humidity;BMP_temperature;BMP_pressure;BME280_temperature;BME280_humidity;BME280_pressure;Samples;Min_cycle;Max_cycle;Signal;HPM_P1;HPM_P2
2022/01/26 00:06:37;;;;;;;43.20;26.35;;;;;;;3.13;91.78;101732.43;1727432;83;21001;-74
2022/01/26 00:09:04;;;;;;;37.90;20.70;;;;;;;3.13;91.77;101733.75;1727195;83;21089;-74
2022/01/26 00:11:33;;;;;;;34.35;18.42;;;;;;;3.14;91.77;101731.50;1727658;83;21014;-74
2022/01/26 00:14:01;;;;;;;26.12;14.28;;;;;;;3.15;91.80;101737.16;1727569;83;21038;-74
2022/01/26 00:16:37;;;;;;;26.57;13.28;;;;;;;3.15;91.80;101731.03;1703599;83;21010;-74
2022/01/26 00:18:59;;;;;;;17.48;10.85;;;;;;;3.14;91.81;101724.91;1720734;83;21530;-73
2022/01/26 00:22:09;;;;;;;18.98;13.05;;;;;;;3.14;91.81;101727.55;1719733;83;21050;-74
2022/01/26 00:24:26;;;;;;;26.42;13.32;;;;;;;3.15;91.82;101727.94;1697813;82;21036;-74
2022/01/26 00:29:17;;;;;;;23.35;12.45;;;;;;;3.17;91.83;101714.65;1722806;83;21061;-74
2022/01/26 00:33:06;;;;;;;15.63;10.40;;;;;;;3.18;91.82;101708.45;1727552;83;21070;-74
2022/01/26 00:41:03;;;;;;;25.23;15.78;;;;;;;3.16;91.85;101698.48;1727347;83;21163;-74
2022/01/26 00:45:42;;;;;;;24.85;18.23;;;;;;;3.20;91.86;101698.19;1819809;78;22740;-74
2022/01/26 00:48:09;;;;;;;26.10;19.07;;;;;;;3.15;91.85;101694.99;1790544;79;20890;-74
2022/01/26 00:50:38;;;;;;;20.12;14.40;;;;;;;3.15;91.85;101694.99;1790457;80;21809;-74
2022/01/26 00:53:04;;;;;;;17.07;10.50;;;;;;;3.16;91.87;101700.65;1789745;80;21010;-74
2022/01/26 00:55:31;;;;;;;15.58;10.53;;;;;;;3.16;91.88;101705.92;1788980;80;21535;-74
2022/01/26 00:57:57;;;;;;;15.63;9.93;;;;;;;3.17;91.89;101702.79;1788771;80;21555;-74
2022/01/26 01:00:25;;;;;;;16.65;9.63;;;;;;;3.17;91.89;101696.20;1789017;80;20993;-74
2022/01/26 01:02:53;;;;;;;16.73;9.97;;;;;;;3.17;91.89;101693.56;1788681;80;21184;-74
2022/01/26 01:05:26;;;;;;;13.80;8.93;;;;;;;3.17;91.89;101701.00;1788732;80;20978;-75
2022/01/26 01:07:54;;;;;;;16.95;10.45;;;;;;;3.18;91.90;101695.27;1788201;80;21273;-74
2022/01/26 01:10:21;;;;;;;19.82;10.72;;;;;;;3.17;91.91;101697.05;1788624;80;20987;-74
2022/01/26 01:12:48;;;;;;;20.00;12.03;;;;;;;3.18;91.91;101704.50;1788751;80;21002;-74
2022/01/26 01:15:14;;;;;;;26.87;19.85;;;;;;;3.18;91.93;101704.50;1789042;80;21468;-74
2022/01/26 01:17:46;;;;;;;25.40;17.80;;;;;;;3.17;91.93;101698.37;1788771;80;20974;-74
2022/01/26 01:27:57;;;;;;;18.77;12.55;;;;;;;3.17;91.93;101697.05;1789114;80;21142;-74
2022/01/26 01:35:22;;;;;;;15.58;9.93;;;;;;;3.17;91.93;101698.37;1772507;80;21011;-74
2022/01/26 01:37:48;;;;;;;16.62;9.28;;;;;;;3.18;91.93;101694.80;1788925;80;20990;-74
2022/01/26 01:40:14;;;;;;;19.90;10.82;;;;;;;3.18;91.95;101692.17;1788974;80;21135;-74
2022/01/26 01:42:40;;;;;;;16.05;9.40;;;;;;;3.20;91.95;101694.23;1788843;80;20883;-74
2022/01/26 01:45:08;;;;;;;17.07;9.43;;;;;;;3.19;91.96;101693.88;1788606;80;21519;-73
2022/01/26 01:47:34;;;;;;;16.15;9.45;;;;;;;3.18;91.98;101678.14;1789253;80;21010;-74
2022/01/26 01:50:03;;;;;;;17.00;10.32;;;;;;;3.16;91.96;101683.52;1788832;80;20975;-74
2022/01/26 01:52:28;;;;;;;19.02;10.10;;;;;;;3.16;91.98;101686.16;1788892;80;21288;-74
2022/01/26 01:55:02;;;;;;;18.80;11.40;;;;;;;3.16;91.98;101679.56;1789229;80;21002;-74
2022/01/26 01:57:23;;;;;;;17.12;9.00;;;;;;;3.14;91.97;101680.58;1787150;80;21014;-74
2022/01/26 01:59:50;;;;;;;22.82;12.63;;;;;;;3.15;91.99;101675.22;1758038;80;20970;-73
2022/01/26 02:02:16;;;;;;;18.57;10.35;;;;;;;3.15;92.00;101683.13;1788671;80;21088;-73
2022/01/26 02:04:42;;;;;;;22.95;14.85;;;;;;;3.16;91.99;101677.39;1788590;80;21499;-73
2022/01/26 02:07:10;;;;;;;14.38;9.30;;;;;;;3.16;92.00;101675.61;1788380;80;20949;-73
2022/01/26 02:09:36;;;;;;;15.65;8.55;;;;;;;3.16;92.01;101678.25;1788662;80;21022;-73
2022/01/26 02:12:13;;;;;;;19.30;9.63;;;;;;;3.17;92.01;101682.55;1788547;80;21030;-73
2022/01/26 02:14:44;;;;;;;18.10;10.03;;;;;;;3.17;92.01;101678.60;1788285;79;22216;-73
2022/01/26 02:20:07;;;;;;;16.65;10.13;;;;;;;3.18;92.04;101681.63;1788443;80;21003;-73
2022/01/26 02:50:16;;;;;;;18.02;11.40;;;;;;;3.15;92.07;101663.37;1779627;80;21530;-74
2022/01/26 02:52:47;;;;;;;17.40;10.00;;;;;;;3.15;92.07;101659.41;1776229;80;21022;-74
2022/01/26 02:58:32;;;;;;;16.95;9.73;;;;;;;3.15;92.08;101658.09;1779904;80;21174;-74
2022/01/26 03:00:53;;;;;;;12.40;8.23;;;;;;;3.14;92.07;101657.70;1775113;80;21035;-74
2022/01/26 03:03:13;;;;;;;16.17;9.85;;;;;;;3.15;92.08;101650.66;1776098;80;21022;-74
2022/01/26 03:05:34;;;;;;;18.75;10.43;;;;;;;3.13;92.08;101656.00;1774993;80;20979;-74
2022/01/26 03:08:01;;;;;;;15.75;9.38;;;;;;;3.13;92.07;101656.00;1778962;80;21026;-74
2022/01/26 03:13:18;;;;;;;18.10;11.83;;;;;;;3.13;92.10;101659.95;1780018;80;21368;-74
2022/01/26 03:15:42;;;;;;;15.63;9.13;;;;;;;3.14;92.09;101656.85;1770079;80;21574;-74
2022/01/26 03:20:42;;;;;;;15.68;10.28;;;;;;;3.14;92.09;101655.07;1780145;79;21034;-74
2022/01/26 03:28:45;;;;;;;22.60;12.82;;;;;;;3.11;92.09;101660.53;1780108;80;21030;-74
2022/01/26 03:34:08;;;;;;;15.85;8.93;;;;;;;3.12;92.11;101660.06;1779833;80;21085;-73
2022/01/26 03:36:32;;;;;;;13.90;8.55;;;;;;;3.12;92.11;101661.38;1778949;80;21243;-73
2022/01/26 03:39:08;;;;;;;11.93;7.62;;;;;;;3.12;92.13;101660.91;1779472;80;21042;-73
2022/01/26 03:41:38;;;;;;;11.65;7.70;;;;;;;3.12;92.14;101653.01;1779175;80;21030;-73
2022/01/26 03:43:58;;;;;;;14.18;8.30;;;;;;;3.12;92.12;101660.91;1778534;80;21460;-74
2022/01/26 03:46:24;;;;;;;15.30;8.68;;;;;;;3.13;92.14;101656.00;1779684;80;21042;-74
2022/01/26 03:48:50;;;;;;;13.90;8.03;;;;;;;3.12;92.13;101662.23;1779798;80;21537;-74
2022/01/26 03:51:16;;;;;;;16.42;9.35;;;;;;;3.12;92.14;101658.28;1779813;80;21499;-74
2022/01/26 03:53:42;;;;;;;14.30;8.85;;;;;;;3.10;92.13;101652.23;1780093;80;21620;-74
2022/01/26 03:56:08;;;;;;;19.90;13.20;;;;;;;3.09;92.14;101658.47;1779913;80;20931;-74
2022/01/26 03:58:34;;;;;;;20.37;14.58;;;;;;;3.08;92.15;101654.13;1780041;80;21066;-74
2022/01/26 04:01:00;;;;;;;22.77;14.60;;;;;;;3.08;92.15;101662.50;1779941;80;21084;-74
2022/01/26 04:03:26;;;;;;;14.95;10.25;;;;;;;3.08;92.14;101655.91;1779723;80;21018;-74
2022/01/26 04:05:52;;;;;;;17.25;11.30;;;;;;;3.08;92.15;101665.13;1780228;80;20887;-74
2022/01/26 04:08:24;;;;;;;13.13;9.05;;;;;;;3.07;92.15;101661.64;1779762;80;21034;-74
2022/01/26 04:11:10;;;;;;;12.28;9.00;;;;;;;3.08;92.15;101660.72;1779524;80;20991;-74
2022/01/26 04:13:20;;;;;;;11.03;7.20;;;;;;;3.08;92.17;101664.67;1775269;80;21092;-74
2022/01/26 04:15:46;;;;;;;15.65;8.43;;;;;;;3.07;92.17;101662.97;1779965;80;20991;-74
2022/01/26 04:18:17;;;;;;;13.30;8.35;;;;;;;3.09;92.19;101658.47;1780118;79;20942;-74
2022/01/26 04:20:44;;;;;;;11.25;7.42;;;;;;;3.08;92.21;101656.77;1724225;83;21047;-74
2022/01/26 04:23:17;;;;;;;20.68;13.45;;;;;;;3.10;92.19;101654.88;1724339;83;21480;-74
2022/01/26 04:25:37;;;;;;;22.05;9.43;;;;;;;3.10;92.20;101655.37;1722905;83;21199;-74
2022/01/26 04:28:07;;;;;;;16.95;10.23;;;;;;;3.09;92.21;101651.03;1724745;82;21056;-74
2022/01/26 04:30:31;;;;;;;14.07;8.93;;;;;;;3.08;92.22;101643.59;1724049;83;21454;-74
2022/01/26 04:33:03;;;;;;;12.55;8.90;;;;;;;3.08;92.22;101640.95;1724748;82;21012;-74
2022/01/26 04:35:25;;;;;;;17.95;13.45;;;;;;;3.07;92.22;101647.16;1724089;83;21016;-74
2022/01/26 04:38:14;;;;;;;23.57;18.50;;;;;;;3.06;92.21;101644.63;1779790;80;21114;-74
2022/01/26 04:40:35;;;;;;;23.30;17.95;;;;;;;3.05;92.21;101643.77;1776997;80;20971;-74
2022/01/26 04:43:04;;;;;;;19.05;12.95;;;;;;;3.05;92.21;101643.77;1778613;80;21495;-74
2022/01/26 04:45:27;;;;;;;16.23;11.55;;;;;;;3.05;92.22;101642.92;1781784;80;21030;-74
2022/01/26 04:47:53;;;;;;;14.50;9.35;;;;;;;3.06;92.23;101641.53;1788390;80;20978;-74
2022/01/26 04:50:19;;;;;;;11.38;7.75;;;;;;;3.07;92.23;101647.62;1788102;80;21130;-73
2022/01/26 04:52:46;;;;;;;10.53;7.70;;;;;;;3.07;92.23;101641.88;1788161;80;20990;-73
2022/01/26 04:55:13;;;;;;;13.43;9.28;;;;;;;3.05;92.23;101638.50;1788437;80;21451;-74
2022/01/26 04:57:39;;;;;;;12.58;8.20;;;;;;;3.07;92.25;101646.30;1788228;80;20975;-74
2022/01/26 05:00:07;;;;;;;12.90;8.45;;;;;;;3.05;92.25;101637.66;1788065;80;21455;-74
2022/01/26 05:02:34;;;;;;;11.45;8.15;;;;;;;3.02;92.25;101637.37;1788587;80;21120;-73
2022/01/26 05:05:00;;;;;;;13.13;8.10;;;;;;;3.01;92.26;101635.20;1788005;80;20967;-73
2022/01/26 05:07:26;;;;;;;14.78;9.28;;;;;;;3.02;92.27;101633.42;1788457;80;20938;-74
2022/01/26 05:09:52;;;;;;;15.80;10.45;;;;;;;3.02;92.26;101629.47;1788197;80;20987;-74
2022/01/26 05:12:18;;;;;;;21.00;12.07;;;;;;;3.01;92.27;101620.71;1788166;80;20911;-74
2022/01/26 05:14:46;;;;;;;15.03;9.88;;;;;;;3.00;92.26;101616.84;1788293;80;21943;-74
2022/01/26 05:17:13;;;;;;;16.27;10.95;;;;;;;3.00;92.26;101617.69;1788284;80;20950;-74
2022/01/26 05:19:39;;;;;;;16.57;13.93;;;;;;;2.99;92.26;101607.27;1788316;80;21018;-74
2022/01/26 05:22:05;;;;;;;20.15;15.15;;;;;;;3.00;92.27;101607.61;1788081;80;20963;-74
2022/01/26 05:24:31;;;;;;;21.48;17.32;;;;;;;3.00;92.29;101606.30;1782807;80;20962;-74
2022/01/26 05:26:57;;;;;;;19.60;13.18;;;;;;;3.00;92.29;101608.94;1759246;80;21161;-74
2022/01/26 05:29:23;;;;;;;14.78;9.80;;;;;;;2.98;92.28;101606.41;1759502;80;21116;-74
2022/01/26 05:31:49;;;;;;;13.65;8.58;;;;;;;2.98;92.30;101608.19;1726934;81;20930;-74
2022/01/26 05:34:15;;;;;;;13.08;9.35;;;;;;;2.97;92.29;101611.75;1722909;81;21015;-73
2022/01/26 05:36:42;;;;;;;21.35;12.20;;;;;;;2.96;92.32;101607.42;1753516;81;21054;-74
2022/01/26 05:39:08;;;;;;;17.42;9.45;;;;;;;2.97;92.30;101607.80;1748530;81;21106;-73
2022/01/26 05:41:34;;;;;;;14.90;9.55;;;;;;;2.96;92.31;101610.05;1740194;81;21021;-74
2022/01/26 05:44:00;;;;;;;11.93;7.67;;;;;;;2.96;92.33;101606.09;1692957;84;21547;-74
2022/01/26 05:46:39;;;;;;;16.32;10.08;;;;;;;2.94;92.33;101606.20;1733497;80;21096;-73
2022/01/26 05:49:00;;;;;;;16.30;9.25;;;;;;;2.94;92.31;101606.67;1728178;82;21013;-73
2022/01/26 05:51:27;;;;;;;19.05;10.30;;;;;;;2.94;92.33;101602.72;1744802;81;21114;-74
2022/01/26 05:53:53;;;;;;;17.73;9.43;;;;;;;2.92;92.33;101605.93;1724766;83;21006;-74
2022/01/26 05:56:19;;;;;;;26.35;10.45;;;;;;;2.92;92.31;101603.30;1733691;82;21018;-73
2022/01/26 05:58:45;;;;;;;21.87;12.45;;;;;;;2.90;92.33;101605.16;1726291;83;20927;-74
2022/01/26 06:01:12;;;;;;;18.70;10.13;;;;;;;2.91;92.35;101602.91;1735194;82;21006;-74
2022/01/26 06:03:38;;;;;;;19.20;11.97;;;;;;;2.89;92.36;101604.30;1735192;82;21127;-73
2022/01/26 06:06:04;;;;;;;19.32;10.53;;;;;;;2.87;92.35;101600.08;1737352;82;20900;-74
2022/01/26 06:08:30;;;;;;;18.37;11.33;;;;;;;2.85;92.34;101601.97;1721823;82;21541;-73
2022/01/26 06:10:56;;;;;;;15.10;8.90;;;;;;;2.83;92.35;101595.45;1734260;81;21006;-74
2022/01/26 06:13:22;;;;;;;16.55;9.23;;;;;;;2.83;92.37;101597.23;1725273;81;21014;-73
2022/01/26 06:15:48;;;;;;;16.93;8.38;;;;;;;2.83;92.36;101598.55;1738108;82;21132;-73
2022/01/26 06:18:14;;;;;;;13.98;8.13;;;;;;;2.82;92.34;101599.48;1725278;82;20913;-73
2022/01/26 06:20:40;;;;;;;13.55;6.85;;;;;;;2.81;92.37;101601.30;1708888;83;21031;-74
2022/01/26 06:23:06;;;;;;;26.95;9.95;;;;;;;2.80;92.36;101601.38;1719321;82;20987;-73
2022/01/26 06:25:33;;;;;;;15.45;8.05;;;;;;;2.80;92.37;101598.74;1738019;82;21484;-73
2022/01/26 06:28:01;;;;;;;54.55;20.27;;;;;;;2.80;92.35;101602.69;1738078;82;22110;-73
2022/01/26 06:30:27;;;;;;;57.03;25.97;;;;;;;2.80;92.37;101597.42;1737323;82;21000;-73
2022/01/26 06:32:53;;;;;;;37.28;12.60;;;;;;;2.79;92.37;101597.03;1726716;83;21070;-73
2022/01/26 06:35:19;;;;;;;27.20;9.65;;;;;;;2.78;92.38;101591.42;1705948;84;20988;-73
2022/01/26 06:37:45;;;;;;;29.82;13.40;;;;;;;2.79;92.38;101606.26;1726692;83;21006;-73
2022/01/26 06:40:12;;;;;;;21.02;10.38;;;;;;;2.79;92.37;101606.26;1713931;82;21172;-74
2022/01/26 06:43:04;;;;;;;16.97;11.57;;;;;;;2.78;92.37;101604.09;1745274;81;21111;-74
2022/01/26 06:45:16;;;;;;;22.60;10.70;;;;;;;2.76;92.37;101605.12;1710614;82;21070;-73
2022/01/26 06:47:48;;;;;;;16.10;8.38;;;;;;;2.79;92.37;101602.30;1722851;82;21018;-73
2022/01/26 06:50:06;;;;;;;24.20;10.13;;;;;;;2.79;92.38;101606.26;1710232;82;21483;-73
2022/01/26 06:52:32;;;;;;;16.93;8.33;;;;;;;2.77;92.38;101603.73;1697217;83;21160;-73
2022/01/26 06:54:58;;;;;;;13.13;7.33;;;;;;;2.77;92.37;101606.83;1697520;84;21015;-73
2022/01/26 06:57:24;;;;;;;13.62;6.42;;;;;;;2.76;92.35;101605.12;1698262;83;20923;-73
2022/01/26 06:59:50;;;;;;;17.30;8.35;;;;;;;2.79;92.36;101608.89;1713140;81;21053;-73
2022/01/26 07:02:16;;;;;;;15.38;7.53;;;;;;;2.78;92.37;101601.95;1726025;83;21067;-73
2022/01/26 07:04:42;;;;;;;11.97;7.12;;;;;;;2.78;92.36;101611.17;1723874;83;21137;-73
2022/01/26 07:07:08;;;;;;;19.90;9.15;;;;;;;2.77;92.37;101606.83;1722549;83;20976;-73
2022/01/26 07:09:34;;;;;;;12.23;7.53;;;;;;;2.78;92.37;101611.17;1759252;80;21403;-73
2022/01/26 07:12:00;;;;;;;24.65;9.10;;;;;;;2.77;92.36;101610.31;1771746;80;21093;-73
2022/01/26 07:19:49;;;;;;;15.72;8.33;;;;;;;2.77;92.36;101609.47;1771110;80;20880;-73
2022/01/26 07:20:01;;;;;;;15.85;8.20;;;;;;;2.75;92.33;101609.55;1752615;80;20999;-73
2022/01/26 07:22:18;;;;;;;14.30;9.18;;;;;;;2.76;92.32;101613.02;1748402;80;21352;-73
2022/01/26 07:24:44;;;;;;;19.92;15.75;;;;;;;2.76;92.29;101611.25;1749246;81;21520;-74
2022/01/26 07:27:11;;;;;;;16.42;11.57;;;;;;;2.77;92.30;101610.78;1767275;80;20975;-73
2022/01/26 07:29:37;;;;;;;13.38;8.58;;;;;;;2.79;92.30;101607.58;1780209;80;22172;-73
2022/01/26 07:32:06;;;;;;;12.35;7.50;;;;;;;2.80;92.31;101609.28;1779806;80;21511;-73
2022/01/26 07:34:32;;;;;;;23.45;9.98;;;;;;;2.81;92.31;101605.72;1779948;80;21022;-73
2022/01/26 07:37:03;;;;;;;16.95;9.00;;;;;;;2.81;92.29;101605.72;1779924;80;21620;-74
2022/01/26 07:39:42;;;;;;;13.08;7.80;;;;;;;2.79;92.27;101604.94;1761620;80;21251;-73
2022/01/26 07:41:57;;;;;;;24.55;13.45;;;;;;;2.78;92.29;101608.04;1773925;80;21108;-74
2022/01/26 07:44:23;;;;;;;30.23;15.20;;;;;;;2.79;92.27;101597.03;1778180;80;21020;-73
2022/01/26 07:46:49;;;;;;;30.05;13.03;;;;;;;2.78;92.27;101608.04;1778270;80;21468;-73
2022/01/26 07:49:15;;;;;;;19.52;11.25;;;;;;;2.78;92.25;101609.85;1778288;80;21484;-73
2022/01/26 07:51:41;;;;;;;16.57;10.68;;;;;;;2.76;92.23;101606.44;1778467;80;21601;-73
2022/01/26 07:54:07;;;;;;;22.17;15.30;;;;;;;2.76;92.22;101599.86;1777862;80;21093;-73
2022/01/26 07:56:33;;;;;;;18.00;12.20;;;;;;;2.76;92.22;101599.86;1778201;80;21032;-73
2022/01/26 07:58:59;;;;;;;19.75;11.70;;;;;;;2.76;92.20;101607.77;1778260;80;20984;-73
2022/01/26 08:01:25;;;;;;;18.32;12.18;;;;;;;2.74;92.21;101596.02;1778088;80;21047;-73
2022/01/26 08:03:51;;;;;;;26.45;16.35;;;;;;;2.75;92.20;101600.78;1778404;80;20988;-73
2022/01/26 08:06:18;;;;;;;19.32;12.03;;;;;;;2.75;92.20;101604.27;1778264;80;21168;-73
2022/01/26 08:08:44;;;;;;;33.92;13.60;;;;;;;2.74;92.20;101605.23;1778397;80;21039;-73
2022/01/26 08:11:10;;;;;;;20.85;10.88;;;;;;;2.74;92.19;101601.75;1713450;83;21054;-73
2022/01/26 08:13:36;;;;;;;18.50;10.68;;;;;;;2.74;92.18;101601.75;1778150;80;21527;-73
2022/01/26 08:16:03;;;;;;;38.55;14.07;;;;;;;2.74;92.19;101599.11;1752804;80;20983;-73
2022/01/26 08:18:29;;;;;;;22.37;10.32;;;;;;;2.73;92.16;101594.77;1782702;79;21137;-72
2022/01/26 08:21:02;;;;;;;17.85;9.85;;;;;;;2.74;92.17;101596.48;1778203;80;20992;-73
2022/01/26 08:23:23;;;;;;;25.27;12.05;;;;;;;2.74;92.17;101601.75;1776717;80;21007;-73
2022/01/26 08:25:52;;;;;;;29.75;15.25;;;;;;;2.73;92.15;101601.36;1778397;80;21428;-73
2022/01/26 08:28:24;;;;;;;31.82;16.35;;;;;;;2.75;92.14;101606.05;1771303;80;21048;-73
2022/01/26 08:30:46;;;;;;;30.00;16.07;;;;;;;2.76;92.18;101611.25;1754468;80;21238;-73
2022/01/26 08:33:12;;;;;;;25.57;13.95;;;;;;;2.77;92.16;101612.95;1750069;80;21527;-73
2022/01/26 08:35:38;;;;;;;19.82;13.32;;;;;;;2.77;92.15;101604.20;1748957;80;21496;-73
2022/01/26 08:38:04;;;;;;;22.35;14.75;;;;;;;2.79;92.15;101610.20;1757383;80;20983;-73
2022/01/26 08:40:33;;;;;;;25.75;16.17;;;;;;;2.79;92.17;101612.38;1767799;80;21019;-73
2022/01/26 08:42:58;;;;;;;17.60;12.20;;;;;;;2.78;92.15;101610.67;1758789;80;22113;-72
2022/01/26 08:45:24;;;;;;;18.95;11.70;;;;;;;2.80;92.14;101610.59;1707672;82;21733;-73
2022/01/26 08:47:51;;;;;;;19.30;10.93;;;;;;;2.81;92.14;101609.67;1759425;80;21037;-73
2022/01/26 08:50:17;;;;;;;21.33;11.65;;;;;;;2.84;92.14;101618.70;1776001;80;21526;-73
2022/01/26 08:52:43;;;;;;;18.00;9.25;;;;;;;2.85;92.14;101615.95;1765935;80;21097;-73
2022/01/26 08:55:10;;;;;;;20.27;10.18;;;;;;;2.87;92.14;101617.20;1762700;79;21119;-73
2022/01/26 08:57:37;;;;;;;18.12;10.88;;;;;;;2.87;92.12;101610.61;1761346;80;21014;-73
2022/01/26 09:00:08;;;;;;;20.30;12.33;;;;;;;2.89;92.11;101612.67;1757771;81;21026;-74
2022/01/26 09:02:36;;;;;;;18.62;10.05;;;;;;;2.91;92.10;101612.13;1757539;81;20986;-73
2022/01/26 09:05:08;;;;;;;16.75;10.60;;;;;;;2.91;92.12;101612.98;1787817;80;21624;-73
2022/01/26 09:07:34;;;;;;;14.63;8.58;;;;;;;2.91;92.12;101610.81;1789285;80;21004;-73
2022/01/26 09:10:02;;;;;;;21.12;12.85;;;;;;;2.89;92.11;101606.09;1777620;80;21519;-73
2022/01/26 09:12:30;;;;;;;26.45;14.80;;;;;;;2.90;92.10;101605.16;1757501;81;21475;-73
2022/01/26 09:15:00;;;;;;;22.22;14.98;;;;;;;2.91;92.08;101601.59;1776978;80;21026;-73
2022/01/26 09:17:27;;;;;;;21.87;14.80;;;;;;;2.92;92.07;101601.98;1766018;80;20987;-73
2022/01/26 09:19:53;;;;;;;26.68;17.10;;;;;;;2.93;92.08;101602.33;1757448;81;21231;-73
2022/01/26 09:22:19;;;;;;;21.00;14.05;;;;;;;2.97;92.05;101607.80;1786029;80;21061;-73
2022/01/26 09:24:45;;;;;;;23.92;12.33;;;;;;;2.97;92.05;101607.80;1789030;79;20984;-73
2022/01/26 09:27:14;;;;;;;23.60;12.45;;;;;;;2.99;92.06;101609.90;1789117;80;21034;-73
2022/01/26 09:29:41;;;;;;;20.65;10.35;;;;;;;2.98;92.04;101613.46;1789371;80;21460;-73
2022/01/26 09:32:08;;;;;;;20.77;11.15;;;;;;;2.98;92.03;101608.19;1785659;78;21130;-72
2022/01/26 09:34:35;;;;;;;24.75;12.85;;;;;;;2.97;92.03;101603.85;1790366;78;21013;-73
2022/01/26 09:37:07;;;;;;;19.70;10.95;;;;;;;2.96;91.99;101607.42;1757790;80;21060;-73
2022/01/26 09:39:33;;;;;;;21.40;9.35;;;;;;;2.95;92.00;101603.96;1757434;80;21092;-72
2022/01/26 09:42:00;;;;;;;19.75;10.03;;;;;;;2.97;92.00;101605.17;1757755;80;21013;-73
2022/01/26 09:44:26;;;;;;;17.23;11.08;;;;;;;2.96;91.97;101603.46;1757783;81;21117;-73
2022/01/26 09:46:52;;;;;;;19.50;12.10;;;;;;;2.99;91.96;101599.36;1758013;80;21612;-72
2022/01/26 09:49:18;;;;;;;47.98;23.65;;;;;;;3.03;91.92;101597.38;1760260;81;20905;-73
2022/01/26 09:51:49;;;;;;;28.52;13.78;;;;;;;3.08;91.93;101597.94;1760347;80;21073;-73
2022/01/26 09:54:17;;;;;;;27.37;14.55;;;;;;;3.11;91.91;101599.91;1759909;81;21495;-73
2022/01/26 09:56:48;;;;;;;22.80;16.20;;;;;;;3.15;91.89;101603.21;1760234;80;21228;-73
2022/01/26 09:59:16;;;;;;;24.40;14.70;;;;;;;3.16;91.90;101606.23;1760090;81;20978;-73
2022/01/26 10:01:51;;;;;;;25.23;13.70;;;;;;;3.15;91.86;101607.17;1736846;80;21040;-73
2022/01/26 10:04:39;;;;;;;21.02;12.00;;;;;;;3.18;91.86;101601.24;1774045;80;21388;-73
2022/01/26 10:18:14;;;;;;;18.48;10.30;;;;;;;3.23;91.72;101603.14;1759881;80;21022;-73
2022/01/26 10:20:51;;;;;;;16.52;7.80;;;;;;;3.23;91.69;101592.59;1755331;80;21006;-73
2022/01/26 10:23:20;;;;;;;34.45;18.77;;;;;;;3.20;91.66;101600.66;1765632;80;21585;-73
2022/01/26 10:26:06;;;;;;;21.30;9.10;;;;;;;3.19;91.61;101596.36;1775992;80;22344;-73
2022/01/26 10:28:57;;;;;;;17.67;8.68;;;;;;;3.20;91.59;101591.44;1763075;80;21487;-73
2022/01/26 10:31:26;;;;;;;25.75;17.80;;;;;;;3.20;91.56;101590.12;1764012;80;21022;-73
2022/01/26 10:34:22;;;;;;;21.30;12.75;;;;;;;3.19;91.50;101591.08;1773413;80;21073;-73
2022/01/26 10:37:03;;;;;;;16.12;9.75;;;;;;;3.15;91.46;101588.25;1771273;80;21188;-73
2022/01/26 10:39:33;;;;;;;16.80;10.95;;;;;;;3.10;91.43;101584.22;1770384;80;21022;-73
2022/01/26 10:42:03;;;;;;;12.80;6.42;;;;;;;3.08;91.38;101592.20;1772341;78;20997;-73
2022/01/26 10:45:03;;;;;;;13.50;6.40;;;;;;;3.05;91.34;101595.02;1762067;80;21307;-73
2022/01/26 10:47:32;;;;;;;13.50;5.50;;;;;;;3.06;91.31;101596.73;1759067;80;21019;-73
2022/01/26 10:50:30;;;;;;;11.00;6.05;;;;;;;3.03;91.24;101587.66;1748373;82;21204;-73
2022/01/26 10:52:38;;;;;;;11.05;6.70;;;;;;;3.09;91.20;101595.22;1761449;80;21004;-73
2022/01/26 10:55:06;;;;;;;11.38;6.30;;;;;;;3.15;91.17;101585.62;1778428;80;21544;-73
2022/01/26 10:57:34;;;;;;;10.03;6.17;;;;;;;3.20;91.16;101575.63;1778287;80;21070;-73
2022/01/26 11:00:01;;;;;;;13.38;7.50;;;;;;;3.27;91.13;101580.89;1778134;80;21004;-73
2022/01/26 11:02:30;;;;;;;22.90;14.13;;;;;;;3.31;91.10;101578.45;1771220;80;21741;-73
2022/01/26 11:04:55;;;;;;;14.85;7.80;;;;;;;3.32;91.09;101578.84;1756280;80;21027;-73
2022/01/26 11:07:40;;;;;;;20.20;11.33;;;;;;;3.29;91.03;101584.30;1764255;80;21535;-73
2022/01/26 11:10:08;;;;;;;17.67;9.00;;;;;;;3.25;91.03;101591.17;1750527;80;21499;-73
2022/01/26 11:12:37;;;;;;;10.98;6.37;;;;;;;3.22;91.01;101585.63;1768537;80;20991;-73
2022/01/26 11:15:10;;;;;;;12.18;8.25;;;;;;;3.20;90.96;101579.58;1718278;82;21310;-73
2022/01/26 11:17:42;;;;;;;14.33;10.15;;;;;;;3.16;90.92;101578.56;1748338;80;21732;-73
2022/01/26 11:20:22;;;;;;;16.48;10.25;;;;;;;3.14;90.87;101577.33;1777060;80;21048;-73
2022/01/26 11:22:59;;;;;;;17.35;10.35;;;;;;;3.13;90.81;101575.63;1744839;80;21008;-73
2022/01/26 11:25:28;;;;;;;14.03;8.10;;;;;;;3.14;90.78;101577.79;1768743;80;21034;-73
2022/01/26 11:27:55;;;;;;;10.43;6.30;;;;;;;3.14;90.75;101577.33;1765837;80;21112;-74
2022/01/26 11:30:32;;;;;;;16.80;8.88;;;;;;;3.11;90.68;101579.30;1748941;82;21468;-74
2022/01/26 11:33:04;;;;;;;17.65;9.88;;;;;;;3.09;90.65;101578.56;1750627;80;21557;-73
2022/01/26 11:35:37;;;;;;;16.40;8.65;;;;;;;3.10;90.60;101573.18;1780267;80;21070;-73
2022/01/26 11:47:11;;;;;;;18.42;12.37;;;;;;;3.10;90.44;101563.14;1715384;83;21515;-73
2022/01/26 11:49:39;;;;;;;27.48;19.27;;;;;;;3.12;90.41;101564.73;1772056;80;21057;-73
2022/01/26 11:52:06;;;;;;;16.67;12.30;;;;;;;3.11;90.40;101555.12;1780088;80;21003;-73
2022/01/26 11:54:49;;;;;;;20.27;14.63;;;;;;;3.13;90.37;101553.72;1774794;80;21528;-73
2022/01/26 11:57:16;;;;;;;;;;;;;;;3.16;90.34;101553.52;1751282;80;21483;-73
2022/01/26 11:59:48;;;;;;;28.55;20.55;;;;;;;3.16;90.33;101554.38;1759561;79;20177;-74
2022/01/26 12:02:40;;;;;;;33.03;21.50;;;;;;;3.16;90.31;101553.06;1764189;81;21061;-73
2022/01/26 12:05:05;;;;;;;28.23;14.35;;;;;;;3.13;90.29;101544.00;1763243;81;21057;-73
2022/01/26 12:07:31;;;;;;;38.53;18.55;;;;;;;3.10;90.29;101546.83;1764839;81;21845;-74
2022/01/26 12:09:57;;;;;;;50.85;17.90;;;;;;;3.03;90.24;101546.83;1759872;80;21540;-73
2022/01/26 12:12:24;;;;;;;20.68;10.55;;;;;;;2.99;90.23;101550.61;1768539;80;20986;-73
2022/01/26 12:15:00;;;;;;;15.13;7.97;;;;;;;2.96;90.19;101553.41;1759537;80;21346;-73
2022/01/26 12:17:32;;;;;;;16.50;9.25;;;;;;;2.92;90.16;101561.14;1718824;82;21516;-73
2022/01/26 12:32:05;;;;;;;15.53;7.00;;;;;;;2.89;90.12;101560.84;1754129;80;21177;-73
2022/01/26 12:36:34;;;;;;;24.77;12.28;;;;;;;2.78;89.88;101543.51;1749334;80;20979;-73
2022/01/26 12:38:43;;;;;;;26.52;12.20;;;;;;;2.79;89.82;101553.11;1776962;80;21011;-74
2022/01/26 12:43:53;;;;;;;16.87;9.93;;;;;;;2.81;89.74;101549.94;1779881;80;20987;-73
2022/01/26 12:46:22;;;;;;;15.85;8.48;;;;;;;2.83;89.70;101548.51;1779954;79;21910;-73
2022/01/26 12:48:54;;;;;;;13.80;7.85;;;;;;;2.82;89.65;101549.44;1785114;78;20923;-73
2022/01/26 12:51:20;;;;;;;13.40;7.40;;;;;;;2.82;89.62;101548.13;1787814;80;21467;-73
2022/01/26 12:53:55;;;;;;;18.77;8.28;;;;;;;2.78;89.55;101543.51;1788145;80;21637;-73
2022/01/26 12:56:27;;;;;;;12.35;7.08;;;;;;;2.76;89.49;101533.55;1788040;80;21034;-73
2022/01/26 12:59:03;;;;;;;14.40;7.58;;;;;;;2.76;89.45;101539.28;1788124;80;21190;-73
2022/01/26 13:01:29;;;;;;;22.98;10.35;;;;;;;2.72;89.40;101520.19;1788272;80;20974;-74
2022/01/26 13:04:01;;;;;;;17.02;8.28;;;;;;;2.68;89.34;101525.72;1788296;80;20986;-74
2022/01/26 13:06:31;;;;;;;24.75;10.80;;;;;;;2.67;89.29;101534.58;1788368;80;20991;-73
2022/01/26 13:08:59;;;;;;;28.95;12.50;;;;;;;2.67;89.23;101539.84;1788371;80;21026;-73
2022/01/26 13:11:33;;;;;;;21.12;10.32;;;;;;;2.66;89.18;101535.05;1788391;80;21353;-73
2022/01/26 13:14:16;;;;;;;20.37;10.82;;;;;;;2.64;89.15;101532.95;1788095;80;21025;-73
2022/01/26 13:16:47;;;;;;;20.85;10.30;;;;;;;2.62;89.09;101535.30;1787880;80;20986;-73
2022/01/26 13:22:29;;;;;;;32.88;16.62;;;;;;;2.60;88.99;101522.72;1788293;80;20991;-74
2022/01/26 13:27:23;;;;;;;38.70;15.95;;;;;;;2.56;88.90;101515.94;1788039;80;21531;-74
2022/01/26 13:34:53;;;;;;;28.30;12.68;;;;;;;2.50;88.79;101512.72;1733576;80;20990;-73